createdAt,value
2022-09-10T00:02:32.706Z,11.80
2022-09-10T00:07:54.604Z,10.45
2022-09-10T00:13:22.164Z,10.73
2022-09-10T00:18:43.950Z,10.50
2022-09-10T00:24:06.821Z,15.65
2022-09-10T00:29:28.632Z,11.82
2022-09-10T00:34:50.419Z,11.50
2022-09-10T00:40:13.431Z,8.55
2022-09-10T00:45:35.437Z,8.07
2022-09-10T00:51:04.913Z,9.48
2022-09-10T00:56:28.105Z,11.95
2022-09-10T01:01:50.137Z,9.98
2022-09-10T01:07:13.845Z,11.68
2022-09-10T01:13:07.646Z,12.27
2022-09-10T01:18:54.306Z,9.55
2022-09-10T01:24:34.436Z,11.27
2022-09-10T01:30:05.427Z,10.50
2022-09-10T01:35:33.320Z,11.55
2022-09-10T01:40:55.560Z,12.23
2022-09-10T01:46:54.991Z,10.82
2022-09-10T01:52:35.164Z,11.88
2022-09-10T01:58:13.250Z,10.32
2022-09-10T02:03:38.987Z,10.68
2022-09-10T02:09:02.766Z,8.85
2022-09-10T02:14:24.946Z,8.23
2022-09-10T02:19:49.070Z,8.45
2022-09-10T02:25:11.262Z,8.60
2022-09-10T02:30:33.071Z,8.25
2022-09-10T02:35:54.920Z,9.55
2022-09-10T02:41:16.695Z,10.88
2022-09-10T02:46:38.496Z,10.90
2022-09-10T02:52:00.858Z,8.68
2022-09-10T02:57:22.666Z,9.80
2022-09-10T03:02:44.560Z,9.07
2022-09-10T03:08:06.516Z,8.18
2022-09-10T03:13:29.275Z,8.02
2022-09-10T03:18:51.078Z,7.68
2022-09-10T03:24:15.304Z,8.07
2022-09-10T03:29:37.444Z,8.18
2022-09-10T03:34:59.231Z,8.68
2022-09-10T03:40:21.050Z,7.97
2022-09-10T03:45:42.902Z,8.32
2022-09-10T03:51:05.340Z,8.15
2022-09-10T03:56:27.705Z,8.27
2022-09-10T04:01:49.528Z,7.55
2022-09-10T04:07:11.383Z,7.00
2022-09-10T04:12:33.194Z,10.70
2022-09-10T04:17:55.010Z,8.35
2022-09-10T04:23:16.901Z,8.85
2022-09-10T04:28:38.877Z,7.88
2022-09-10T04:34:00.748Z,8.60
2022-09-10T04:39:22.542Z,8.90
2022-09-10T04:44:44.405Z,8.30
2022-09-10T04:50:07.078Z,8.35
2022-09-10T04:55:31.000Z,7.45
2022-09-10T05:00:52.923Z,7.70
2022-09-10T05:06:14.762Z,8.45
2022-09-10T05:11:36.669Z,7.80
2022-09-10T05:16:58.563Z,7.80
2022-09-10T05:22:20.482Z,8.32
2022-09-10T05:27:42.266Z,7.88
2022-09-10T05:33:04.392Z,8.95
2022-09-10T05:38:26.168Z,8.13
2022-09-10T05:43:48.618Z,7.90
2022-09-10T05:49:10.722Z,7.75
2022-09-10T05:54:32.527Z,11.10
2022-09-10T05:59:54.354Z,11.57
2022-09-10T06:05:16.404Z,9.40
2022-09-10T06:10:38.219Z,9.82
2022-09-10T06:16:01.122Z,10.23
2022-09-10T06:21:27.521Z,9.82
2022-09-10T06:26:50.538Z,10.98
2022-09-10T06:32:12.298Z,10.02
2022-09-10T06:37:34.061Z,9.65
2022-09-10T06:42:55.843Z,8.43
2022-09-10T06:48:38.599Z,8.93
2022-09-10T06:54:00.022Z,10.48
2022-09-10T06:59:21.799Z,9.00
2022-09-10T07:04:43.627Z,10.00
2022-09-10T07:10:05.837Z,8.00
2022-09-10T07:15:28.407Z,8.88
2022-09-10T07:20:50.406Z,10.60
2022-09-10T07:26:13.794Z,10.45
2022-09-10T07:31:37.242Z,8.10
2022-09-10T07:36:59.006Z,9.35
2022-09-10T07:42:20.805Z,8.50
2022-09-10T07:47:44.036Z,8.20
2022-09-10T07:53:05.999Z,9.60
2022-09-10T07:58:29.608Z,10.20
2022-09-10T08:03:51.487Z,11.27
2022-09-10T08:09:13.274Z,17.23
2022-09-10T08:14:35.690Z,11.90
2022-09-10T08:19:57.695Z,9.50
2022-09-10T08:25:19.489Z,9.98
2022-09-10T08:30:41.313Z,10.80
2022-09-10T08:36:04.512Z,10.32
2022-09-10T08:41:38.270Z,8.45
2022-09-10T08:47:06.526Z,9.55
2022-09-10T08:52:28.270Z,10.00
2022-09-10T08:58:00.264Z,10.02
2022-09-10T09:03:35.682Z,10.55
2022-09-10T09:08:58.767Z,8.45
2022-09-10T09:14:44.818Z,8.48
2022-09-10T09:20:15.255Z,8.68
2022-09-10T09:25:47.348Z,9.13
2022-09-10T09:31:41.396Z,8.35
2022-09-10T09:37:11.491Z,10.70
2022-09-10T09:42:55.794Z,7.95
2022-09-10T09:48:19.472Z,14.90
2022-09-10T09:53:45.092Z,9.02
2022-09-10T09:59:24.648Z,9.75
2022-09-10T10:05:14.278Z,9.43
2022-09-10T10:10:36.106Z,10.57
2022-09-10T10:16:15.297Z,10.32
2022-09-10T10:21:37.146Z,9.10
2022-09-10T10:26:59.868Z,9.85
2022-09-10T10:32:28.250Z,8.30
2022-09-10T10:38:27.739Z,11.45
2022-09-10T10:44:20.635Z,9.88
2022-09-10T10:50:09.560Z,7.30
2022-09-10T10:55:46.879Z,7.72
2022-09-10T11:01:21.445Z,9.60
2022-09-10T11:06:51.768Z,7.18
2022-09-10T11:12:21.128Z,7.88
2022-09-10T11:17:57.645Z,7.93
2022-09-10T11:29:06.114Z,8.70
2022-09-10T11:34:45.110Z,9.77
2022-09-10T11:40:17.958Z,7.22
2022-09-10T11:45:47.031Z,8.93
2022-09-10T11:51:24.010Z,7.55
2022-09-10T11:56:57.799Z,8.27
2022-09-10T12:02:25.413Z,8.27
2022-09-10T12:07:47.167Z,7.05
2022-09-10T12:13:13.276Z,7.15
2022-09-10T12:18:43.888Z,6.30
2022-09-10T12:24:29.481Z,6.20
2022-09-10T12:29:51.296Z,8.20
2022-09-10T12:35:31.136Z,8.23
2022-09-10T12:40:52.922Z,7.80
2022-09-10T12:46:14.690Z,8.57
2022-09-10T12:51:51.521Z,8.07
2022-09-10T12:57:20.388Z,11.90
2022-09-10T13:03:06.446Z,8.32
2022-09-10T13:08:33.491Z,6.80
2022-09-10T13:14:01.345Z,7.10
2022-09-10T13:19:23.079Z,9.02
2022-09-10T13:25:03.401Z,9.10
2022-09-10T13:30:26.800Z,10.95
2022-09-10T13:36:32.793Z,7.60
2022-09-10T13:42:00.376Z,9.90
2022-09-10T13:47:40.740Z,9.20
2022-09-10T13:53:06.086Z,8.27
2022-09-10T13:58:34.940Z,8.13
2022-09-10T14:03:56.713Z,9.73
2022-09-10T14:09:20.170Z,9.10
2022-09-10T14:14:50.045Z,9.45
2022-09-10T14:20:26.652Z,9.35
2022-09-10T14:31:26.777Z,11.27
2022-09-10T14:36:48.598Z,10.80
2022-09-10T14:42:22.083Z,9.18
2022-09-10T14:47:51.610Z,13.95
2022-09-10T14:53:13.529Z,8.93
2022-09-10T14:58:35.517Z,9.82
2022-09-10T15:03:58.216Z,10.55
2022-09-10T15:09:20.441Z,8.82
2022-09-10T15:14:42.259Z,9.52
2022-09-10T15:20:04.316Z,12.95
2022-09-10T15:25:35.965Z,11.35
2022-09-10T15:31:00.020Z,12.65
2022-09-10T15:36:22.584Z,15.45
2022-09-10T15:41:44.669Z,11.35
2022-09-10T15:47:06.684Z,11.23
2022-09-10T15:52:28.444Z,11.55
2022-09-10T15:57:51.779Z,11.88
2022-09-10T16:03:13.611Z,11.68
2022-09-10T16:08:35.841Z,12.00
2022-09-10T16:14:04.056Z,15.38
2022-09-10T16:19:26.787Z,13.45
2022-09-10T16:24:48.569Z,15.27
2022-09-10T16:30:12.870Z,12.52
2022-09-10T16:35:35.173Z,13.98
2022-09-10T16:41:03.930Z,11.90
2022-09-10T16:46:27.196Z,13.45
2022-09-10T16:51:49.223Z,14.73
2022-09-10T16:57:11.024Z,16.15
2022-09-10T17:02:32.874Z,15.50
2022-09-10T17:07:54.771Z,15.60
2022-09-10T17:13:16.538Z,16.25
2022-09-10T17:18:38.400Z,15.40
2022-09-10T17:24:01.473Z,14.73
2022-09-10T17:29:24.975Z,13.20
2022-09-10T17:34:46.781Z,15.50
2022-09-10T17:40:09.253Z,13.82
2022-09-10T17:45:31.024Z,12.50
2022-09-10T17:50:52.814Z,11.68
2022-09-10T17:56:17.035Z,12.57
2022-09-10T18:01:39.145Z,10.60
2022-09-10T18:07:01.072Z,14.70
2022-09-10T18:12:22.860Z,11.55
2022-09-10T18:17:44.647Z,10.85
2022-09-10T18:23:06.412Z,11.27
2022-09-10T18:28:28.228Z,12.50
2022-09-10T18:33:50.269Z,10.60
2022-09-10T18:39:12.303Z,8.90
2022-09-10T18:44:34.902Z,10.63
2022-09-10T18:49:56.865Z,12.80
2022-09-10T18:55:18.741Z,8.98
2022-09-10T19:00:40.588Z,9.48
2022-09-10T19:06:06.867Z,8.80
2022-09-10T19:11:34.749Z,9.43
2022-09-10T19:16:58.868Z,6.57
2022-09-10T19:22:20.674Z,8.10
2022-09-10T19:27:42.432Z,8.55
2022-09-10T19:33:04.218Z,6.65
2022-09-10T19:38:47.256Z,5.40
2022-09-10T19:44:09.105Z,5.95
2022-09-10T19:49:31.303Z,6.00
2022-09-10T19:54:53.082Z,6.22
2022-09-10T20:00:36.248Z,5.20
2022-09-10T20:05:59.099Z,5.43
2022-09-10T20:11:24.038Z,6.35
2022-09-10T20:16:46.045Z,5.32
2022-09-10T20:22:07.807Z,5.85
2022-09-10T20:27:29.876Z,4.65
2022-09-10T20:32:51.648Z,5.15
2022-09-10T20:38:13.459Z,9.43
2022-09-10T20:43:35.348Z,4.97
2022-09-10T20:48:59.108Z,5.72
2022-09-10T20:54:20.854Z,5.00
2022-09-10T20:59:42.629Z,4.85
2022-09-10T21:05:04.926Z,8.95
2022-09-10T21:10:26.708Z,7.88
2022-09-10T21:15:48.543Z,8.27
2022-09-10T21:21:13.298Z,9.18
2022-09-10T21:26:37.528Z,11.38
2022-09-10T21:31:59.337Z,9.93
2022-09-10T21:37:21.144Z,13.02
2022-09-10T21:42:43.905Z,10.63
2022-09-10T21:48:05.703Z,9.90
2022-09-10T21:53:28.018Z,9.40
2022-09-10T21:58:49.929Z,8.13
2022-09-10T22:04:12.944Z,8.35
2022-09-10T22:09:34.763Z,7.13
2022-09-10T22:14:56.515Z,8.27
2022-09-10T22:20:18.263Z,8.20
2022-09-10T22:25:40.214Z,8.88
2022-09-10T22:31:13.839Z,8.15
2022-09-10T22:36:38.135Z,8.05
2022-09-10T22:41:59.885Z,9.15
2022-09-10T22:47:21.648Z,7.95
2022-09-10T22:52:43.430Z,7.95
2022-09-10T22:58:05.216Z,7.85
2022-09-10T23:03:27.010Z,6.97
2022-09-10T23:08:51.100Z,8.10
2022-09-10T23:14:18.054Z,8.65
2022-09-10T23:19:39.841Z,8.35
2022-09-10T23:25:01.625Z,8.55
2022-09-10T23:30:23.412Z,7.95
2022-09-10T23:35:50.042Z,10.10
2022-09-10T23:46:34.688Z,8.20
2022-09-10T23:51:56.482Z,9.50
2022-09-10T23:57:18.252Z,9.40
